KASW

Warsaw Municipal Airport

Warsaw, Indiana, USA
METAR KASW 221755Z AUTO 11009G16KT 077V137 10SM CLR 15/M04 A3032 RMK AO2
Observed Flight Rules
Apr-22 @ 17:55 UTC (23 minutes ago) Visual Flight Rules
Wind Visibility Clouds
110° at 9 knots
 Gusting to 16 knots
10 miles
  • Clear skies
Temperatures Readings
Current 15°C / 59°F
Dewpoint -4°C / 25°F
Humidity 27%
Altimeter 30.32" Hg
Pressure 1027 hPa
Elevation 259
METAR KASW 221755Z AUTO 11009G16KT 077V137 10SM CLR 15/M04 A3032 RMK AO2
Observed Flight Rules
Apr-22 @ 17:55 UTC
(23 minutes ago)
VFR
Wind Visibility
110° at 9 knots
 Gusting to 16 knots
10 miles
Clouds
  • Clear skies
Temperature Dewpoint
15°C / 59°F -4°C / 25°F
Humidity Altimeter Pressure
27% 30.32" Hg 1027 hPa